sensor_id;sensor_type;location;lat;lon;timestamp;temperature;humidity
27164;DHT22;14685;50.618;7.024;2022-11-21T00:01:16;10.80;99.90
27164;DHT22;14685;50.618;7.024;2022-11-21T00:03:43;10.80;99.90
27164;DHT22;14685;50.618;7.024;2022-11-21T00:06:12;10.80;99.90
27164;DHT22;14685;50.618;7.024;2022-11-21T00:08:39;10.80;99.90
27164;DHT22;14685;50.618;7.024;2022-11-21T00:11:06;10.80;99.90
27164;DHT22;14685;50.618;7.024;2022-11-21T00:13:33;10.80;99.90
27164;DHT22;14685;50.618;7.024;2022-11-21T00:16:08;10.80;99.90
27164;DHT22;14685;50.618;7.024;2022-11-21T00:18:36;10.80;99.90
27164;DHT22;14685;50.618;7.024;2022-11-21T00:21:07;10.80;99.90
27164;DHT22;14685;50.618;7.024;2022-11-21T00:23:37;10.80;99.90
27164;DHT22;14685;50.618;7.024;2022-11-21T00:26:05;10.80;99.90
27164;DHT22;14685;50.618;7.024;2022-11-21T00:28:32;10.80;99.90
27164;DHT22;14685;50.618;7.024;2022-11-21T00:31:00;10.80;99.90
27164;DHT22;14685;50.618;7.024;2022-11-21T00:33:28;10.80;99.90
27164;DHT22;14685;50.618;7.024;2022-11-21T00:35:55;10.80;99.90
27164;DHT22;14685;50.618;7.024;2022-11-21T00:38:22;10.80;99.90
27164;DHT22;14685;50.618;7.024;2022-11-21T00:40:49;10.80;99.90
27164;DHT22;14685;50.618;7.024;2022-11-21T00:43:16;10.70;99.90
27164;DHT22;14685;50.618;7.024;2022-11-21T00:45:45;10.80;99.90
27164;DHT22;14685;50.618;7.024;2022-11-21T00:48:12;10.80;99.90
27164;DHT22;14685;50.618;7.024;2022-11-21T00:50:39;10.80;99.90
27164;DHT22;14685;50.618;7.024;2022-11-21T00:53:05;10.80;99.90
27164;DHT22;14685;50.618;7.024;2022-11-21T00:55:32;10.70;99.90
27164;DHT22;14685;50.618;7.024;2022-11-21T00:57:59;10.70;99.90
27164;DHT22;14685;50.618;7.024;2022-11-21T01:00:26;10.70;99.90
27164;DHT22;14685;50.618;7.024;2022-11-21T01:02:54;10.70;99.90
27164;DHT22;14685;50.618;7.024;2022-11-21T01:05:22;10.70;99.90
27164;DHT22;14685;50.618;7.024;2022-11-21T01:07:48;10.70;99.90
27164;DHT22;14685;50.618;7.024;2022-11-21T01:10:15;10.60;99.90
27164;DHT22;14685;50.618;7.024;2022-11-21T01:12:44;10.60;99.90
27164;DHT22;14685;50.618;7.024;2022-11-21T01:15:11;10.70;99.90
27164;DHT22;14685;50.618;7.024;2022-11-21T01:17:38;10.70;99.90
27164;DHT22;14685;50.618;7.024;2022-11-21T01:20:05;10.70;99.90
27164;DHT22;14685;50.618;7.024;2022-11-21T01:22:34;10.70;99.90
27164;DHT22;14685;50.618;7.024;2022-11-21T01:25:01;10.70;99.90
27164;DHT22;14685;50.618;7.024;2022-11-21T01:27:27;10.70;99.90
27164;DHT22;14685;50.618;7.024;2022-11-21T01:29:54;10.70;99.90
27164;DHT22;14685;50.618;7.024;2022-11-21T01:32:21;10.70;99.90
27164;DHT22;14685;50.618;7.024;2022-11-21T01:34:48;10.80;99.90
27164;DHT22;14685;50.618;7.024;2022-11-21T01:37:14;10.70;99.90
27164;DHT22;14685;50.618;7.024;2022-11-21T01:39:42;10.70;99.90
27164;DHT22;14685;50.618;7.024;2022-11-21T01:42:11;10.70;99.90
27164;DHT22;14685;50.618;7.024;2022-11-21T01:44:49;10.70;99.90
27164;DHT22;14685;50.618;7.024;2022-11-21T01:47:16;10.70;99.90
27164;DHT22;14685;50.618;7.024;2022-11-21T01:49:45;10.70;99.90
27164;DHT22;14685;50.618;7.024;2022-11-21T01:54:53;10.70;99.90
27164;DHT22;14685;50.618;7.024;2022-11-21T01:57:30;10.70;99.90
27164;DHT22;14685;50.618;7.024;2022-11-21T02:00:09;10.70;99.90
27164;DHT22;14685;50.618;7.024;2022-11-21T02:02:40;10.70;99.90
27164;DHT22;14685;50.618;7.024;2022-11-21T02:05:15;10.60;99.90
27164;DHT22;14685;50.618;7.024;2022-11-21T02:07:45;10.70;99.90
27164;DHT22;14685;50.618;7.024;2022-11-21T02:10:13;10.60;99.90
27164;DHT22;14685;50.618;7.024;2022-11-21T02:12:48;10.60;99.90
27164;DHT22;14685;50.618;7.024;2022-11-21T02:15:16;10.60;99.90
27164;DHT22;14685;50.618;7.024;2022-11-21T02:17:45;10.60;99.90
27164;DHT22;14685;50.618;7.024;2022-11-21T02:20:15;10.60;99.90
27164;DHT22;14685;50.618;7.024;2022-11-21T02:23:02;10.60;99.90
27164;DHT22;14685;50.618;7.024;2022-11-21T02:25:37;10.60;99.90
27164;DHT22;14685;50.618;7.024;2022-11-21T02:28:06;10.60;99.90
27164;DHT22;14685;50.618;7.024;2022-11-21T02:30:36;10.60;99.90
27164;DHT22;14685;50.618;7.024;2022-11-21T02:33:05;10.60;99.90
27164;DHT22;14685;50.618;7.024;2022-11-21T02:35:32;10.70;99.90
27164;DHT22;14685;50.618;7.024;2022-11-21T02:40:40;10.70;99.90
27164;DHT22;14685;50.618;7.024;2022-11-21T02:43:18;10.70;99.90
27164;DHT22;14685;50.618;7.024;2022-11-21T02:45:47;10.60;99.90
27164;DHT22;14685;50.618;7.024;2022-11-21T02:48:14;10.60;99.90
27164;DHT22;14685;50.618;7.024;2022-11-21T02:50:43;10.60;99.90
27164;DHT22;14685;50.618;7.024;2022-11-21T02:53:13;10.60;99.90
27164;DHT22;14685;50.618;7.024;2022-11-21T02:55:41;10.60;99.90
27164;DHT22;14685;50.618;7.024;2022-11-21T02:58:09;10.60;99.90
27164;DHT22;14685;50.618;7.024;2022-11-21T03:00:40;10.50;99.90
27164;DHT22;14685;50.618;7.024;2022-11-21T03:03:08;10.50;99.90
27164;DHT22;14685;50.618;7.024;2022-11-21T03:05:35;10.50;99.90
27164;DHT22;14685;50.618;7.024;2022-11-21T03:08:03;10.50;99.90
27164;DHT22;14685;50.618;7.024;2022-11-21T03:10:31;10.60;99.90
27164;DHT22;14685;50.618;7.024;2022-11-21T03:12:58;10.60;99.90
27164;DHT22;14685;50.618;7.024;2022-11-21T03:15:30;10.60;99.90
27164;DHT22;14685;50.618;7.024;2022-11-21T03:17:57;10.60;99.90
27164;DHT22;14685;50.618;7.024;2022-11-21T03:20:24;10.50;99.90
27164;DHT22;14685;50.618;7.024;2022-11-21T03:22:51;10.50;99.90
27164;DHT22;14685;50.618;7.024;2022-11-21T03:25:19;10.50;99.90
27164;DHT22;14685;50.618;7.024;2022-11-21T03:27:52;10.50;99.90
27164;DHT22;14685;50.618;7.024;2022-11-21T03:30:21;10.50;99.90
27164;DHT22;14685;50.618;7.024;2022-11-21T03:32:48;10.50;99.90
27164;DHT22;14685;50.618;7.024;2022-11-21T03:35:15;10.50;99.90
27164;DHT22;14685;50.618;7.024;2022-11-21T03:37:42;10.50;99.90
27164;DHT22;14685;50.618;7.024;2022-11-21T03:40:09;10.60;99.90
27164;DHT22;14685;50.618;7.024;2022-11-21T03:42:38;10.60;99.90
27164;DHT22;14685;50.618;7.024;2022-11-21T03:45:06;10.60;99.90
27164;DHT22;14685;50.618;7.024;2022-11-21T03:47:33;10.50;99.90
27164;DHT22;14685;50.618;7.024;2022-11-21T03:49:59;10.60;99.90
27164;DHT22;14685;50.618;7.024;2022-11-21T03:52:26;10.60;99.90
27164;DHT22;14685;50.618;7.024;2022-11-21T03:54:53;10.60;99.90
27164;DHT22;14685;50.618;7.024;2022-11-21T03:57:20;10.50;99.90
27164;DHT22;14685;50.618;7.024;2022-11-21T03:59:46;10.60;99.90
27164;DHT22;14685;50.618;7.024;2022-11-21T04:02:14;10.60;99.90
27164;DHT22;14685;50.618;7.024;2022-11-21T04:04:41;10.60;99.90
27164;DHT22;14685;50.618;7.024;2022-11-21T04:07:08;10.60;99.90
27164;DHT22;14685;50.618;7.024;2022-11-21T04:09:35;10.70;99.90
27164;DHT22;14685;50.618;7.024;2022-11-21T04:12:02;10.70;99.90
27164;DHT22;14685;50.618;7.024;2022-11-21T04:14:33;10.60;99.90
27164;DHT22;14685;50.618;7.024;2022-11-21T04:17:01;10.70;99.90
27164;DHT22;14685;50.618;7.024;2022-11-21T04:19:27;10.70;99.90
27164;DHT22;14685;50.618;7.024;2022-11-21T04:21:54;10.70;99.90
27164;DHT22;14685;50.618;7.024;2022-11-21T04:24:21;10.70;99.90
27164;DHT22;14685;50.618;7.024;2022-11-21T04:26:48;10.70;99.90
27164;DHT22;14685;50.618;7.024;2022-11-21T04:29:16;10.70;99.90
27164;DHT22;14685;50.618;7.024;2022-11-21T04:31:43;10.70;99.90
27164;DHT22;14685;50.618;7.024;2022-11-21T04:34:09;10.70;99.90
27164;DHT22;14685;50.618;7.024;2022-11-21T04:36:36;10.70;99.90
27164;DHT22;14685;50.618;7.024;2022-11-21T04:39:03;10.70;99.90
27164;DHT22;14685;50.618;7.024;2022-11-21T04:41:30;10.70;99.90
27164;DHT22;14685;50.618;7.024;2022-11-21T04:43:57;10.80;99.90
27164;DHT22;14685;50.618;7.024;2022-11-21T04:46:24;10.70;99.90
27164;DHT22;14685;50.618;7.024;2022-11-21T04:48:50;10.70;99.90
27164;DHT22;14685;50.618;7.024;2022-11-21T04:51:17;10.70;99.90
27164;DHT22;14685;50.618;7.024;2022-11-21T04:53:44;10.70;99.90
27164;DHT22;14685;50.618;7.024;2022-11-21T04:56:11;10.70;99.90
27164;DHT22;14685;50.618;7.024;2022-11-21T04:58:42;10.70;99.90
27164;DHT22;14685;50.618;7.024;2022-11-21T05:01:10;10.70;99.90
27164;DHT22;14685;50.618;7.024;2022-11-21T05:03:37;10.70;99.90
27164;DHT22;14685;50.618;7.024;2022-11-21T05:06:04;10.60;99.90
27164;DHT22;14685;50.618;7.024;2022-11-21T05:08:31;10.60;99.90
27164;DHT22;14685;50.618;7.024;2022-11-21T05:10:57;10.60;99.90
27164;DHT22;14685;50.618;7.024;2022-11-21T05:13:43;10.60;99.90
27164;DHT22;14685;50.618;7.024;2022-11-21T05:16:10;10.60;99.90
27164;DHT22;14685;50.618;7.024;2022-11-21T05:18:39;10.50;99.90
27164;DHT22;14685;50.618;7.024;2022-11-21T05:21:05;10.50;99.90
27164;DHT22;14685;50.618;7.024;2022-11-21T05:23:34;10.50;99.90
27164;DHT22;14685;50.618;7.024;2022-11-21T05:26:00;10.50;99.90
27164;DHT22;14685;50.618;7.024;2022-11-21T05:28:27;10.50;99.90
27164;DHT22;14685;50.618;7.024;2022-11-21T05:30:54;10.50;99.90
27164;DHT22;14685;50.618;7.024;2022-11-21T05:33:21;10.50;99.90
27164;DHT22;14685;50.618;7.024;2022-11-21T05:35:48;10.50;99.90
27164;DHT22;14685;50.618;7.024;2022-11-21T05:38:14;10.50;99.90
27164;DHT22;14685;50.618;7.024;2022-11-21T05:40:41;10.50;99.90
27164;DHT22;14685;50.618;7.024;2022-11-21T05:43:10;10.50;99.90
27164;DHT22;14685;50.618;7.024;2022-11-21T05:45:55;10.50;99.90
27164;DHT22;14685;50.618;7.024;2022-11-21T05:48:22;10.50;99.90
27164;DHT22;14685;50.618;7.024;2022-11-21T05:50:49;10.60;99.90
27164;DHT22;14685;50.618;7.024;2022-11-21T05:53:16;10.70;99.90
27164;DHT22;14685;50.618;7.024;2022-11-21T05:55:43;10.70;99.90
27164;DHT22;14685;50.618;7.024;2022-11-21T05:58:12;10.80;99.90
27164;DHT22;14685;50.618;7.024;2022-11-21T06:00:40;10.70;99.90
27164;DHT22;14685;50.618;7.024;2022-11-21T06:03:11;10.70;99.90
27164;DHT22;14685;50.618;7.024;2022-11-21T06:06:09;10.70;99.90
27164;DHT22;14685;50.618;7.024;2022-11-21T06:08:38;10.70;99.90
27164;DHT22;14685;50.618;7.024;2022-11-21T06:11:07;10.70;99.90
27164;DHT22;14685;50.618;7.024;2022-11-21T06:13:35;10.70;99.90
27164;DHT22;14685;50.618;7.024;2022-11-21T06:16:06;10.60;99.90
27164;DHT22;14685;50.618;7.024;2022-11-21T06:18:35;10.60;99.90
27164;DHT22;14685;50.618;7.024;2022-11-21T06:21:26;10.60;99.90
27164;DHT22;14685;50.618;7.024;2022-11-21T06:23:54;10.50;99.90
27164;DHT22;14685;50.618;7.024;2022-11-21T06:26:23;10.50;99.90
27164;DHT22;14685;50.618;7.024;2022-11-21T06:28:51;10.50;99.90
27164;DHT22;14685;50.618;7.024;2022-11-21T06:31:23;10.50;99.90
27164;DHT22;14685;50.618;7.024;2022-11-21T06:33:55;10.40;99.90
27164;DHT22;14685;50.618;7.024;2022-11-21T06:36:22;10.40;99.90
27164;DHT22;14685;50.618;7.024;2022-11-21T06:38:52;10.40;99.90
27164;DHT22;14685;50.618;7.024;2022-11-21T06:41:22;10.30;99.90
27164;DHT22;14685;50.618;7.024;2022-11-21T06:43:49;10.40;99.90
27164;DHT22;14685;50.618;7.024;2022-11-21T06:46:16;10.30;99.90
27164;DHT22;14685;50.618;7.024;2022-11-21T06:48:43;10.30;99.90
27164;DHT22;14685;50.618;7.024;2022-11-21T06:51:16;10.30;99.90
27164;DHT22;14685;50.618;7.024;2022-11-21T06:53:46;10.30;99.90
27164;DHT22;14685;50.618;7.024;2022-11-21T06:56:14;10.30;99.90
27164;DHT22;14685;50.618;7.024;2022-11-21T06:58:41;10.30;99.90
27164;DHT22;14685;50.618;7.024;2022-11-21T07:01:10;10.30;99.90
27164;DHT22;14685;50.618;7.024;2022-11-21T07:03:37;10.30;99.90
27164;DHT22;14685;50.618;7.024;2022-11-21T07:06:04;10.20;99.90
27164;DHT22;14685;50.618;7.024;2022-11-21T07:08:35;10.30;99.90
27164;DHT22;14685;50.618;7.024;2022-11-21T07:11:05;10.30;99.90
27164;DHT22;14685;50.618;7.024;2022-11-21T07:13:51;10.20;99.90
27164;DHT22;14685;50.618;7.024;2022-11-21T07:16:18;10.20;99.90
27164;DHT22;14685;50.618;7.024;2022-11-21T07:18:45;10.30;99.90
27164;DHT22;14685;50.618;7.024;2022-11-21T07:21:12;10.20;99.90
27164;DHT22;14685;50.618;7.024;2022-11-21T07:23:39;10.20;99.90
27164;DHT22;14685;50.618;7.024;2022-11-21T07:26:07;10.20;99.90
27164;DHT22;14685;50.618;7.024;2022-11-21T07:28:35;10.30;99.90
27164;DHT22;14685;50.618;7.024;2022-11-21T07:31:03;10.20;99.90
27164;DHT22;14685;50.618;7.024;2022-11-21T07:33:37;10.20;99.90
27164;DHT22;14685;50.618;7.024;2022-11-21T07:36:04;10.20;99.90
27164;DHT22;14685;50.618;7.024;2022-11-21T07:38:32;10.20;99.90
27164;DHT22;14685;50.618;7.024;2022-11-21T07:40:59;10.20;99.90
27164;DHT22;14685;50.618;7.024;2022-11-21T07:43:26;10.20;99.90
27164;DHT22;14685;50.618;7.024;2022-11-21T07:45:55;10.20;99.90
27164;DHT22;14685;50.618;7.024;2022-11-21T07:48:22;10.30;99.90
27164;DHT22;14685;50.618;7.024;2022-11-21T07:50:49;10.20;99.90
27164;DHT22;14685;50.618;7.024;2022-11-21T07:53:15;10.20;99.90
27164;DHT22;14685;50.618;7.024;2022-11-21T07:55:42;10.30;99.90
27164;DHT22;14685;50.618;7.024;2022-11-21T07:58:12;10.30;99.90
27164;DHT22;14685;50.618;7.024;2022-11-21T08:00:39;10.30;99.90
27164;DHT22;14685;50.618;7.024;2022-11-21T08:03:09;10.30;99.90
27164;DHT22;14685;50.618;7.024;2022-11-21T08:05:39;10.30;99.90
27164;DHT22;14685;50.618;7.024;2022-11-21T08:08:08;10.30;99.90
27164;DHT22;14685;50.618;7.024;2022-11-21T08:10:44;10.30;99.90
27164;DHT22;14685;50.618;7.024;2022-11-21T08:13:12;10.30;99.90
27164;DHT22;14685;50.618;7.024;2022-11-21T08:15:39;10.30;99.90
27164;DHT22;14685;50.618;7.024;2022-11-21T08:18:14;10.30;99.90
27164;DHT22;14685;50.618;7.024;2022-11-21T08:20:41;10.30;99.90
27164;DHT22;14685;50.618;7.024;2022-11-21T08:23:08;10.30;99.90
27164;DHT22;14685;50.618;7.024;2022-11-21T08:25:37;10.30;99.90
27164;DHT22;14685;50.618;7.024;2022-11-21T08:28:06;10.30;99.90
27164;DHT22;14685;50.618;7.024;2022-11-21T08:30:34;10.30;99.90
27164;DHT22;14685;50.618;7.024;2022-11-21T08:33:02;10.30;99.90
27164;DHT22;14685;50.618;7.024;2022-11-21T08:35:29;10.30;99.90
27164;DHT22;14685;50.618;7.024;2022-11-21T08:37:57;10.30;99.90
27164;DHT22;14685;50.618;7.024;2022-11-21T08:40:25;10.30;99.90
27164;DHT22;14685;50.618;7.024;2022-11-21T08:43:06;10.40;99.90
27164;DHT22;14685;50.618;7.024;2022-11-21T08:45:34;10.30;99.90
27164;DHT22;14685;50.618;7.024;2022-11-21T08:48:02;10.40;99.90
27164;DHT22;14685;50.618;7.024;2022-11-21T08:50:28;10.30;99.90
27164;DHT22;14685;50.618;7.024;2022-11-21T08:52:59;10.40;99.90
27164;DHT22;14685;50.618;7.024;2022-11-21T08:55:28;10.40;99.90
27164;DHT22;14685;50.618;7.024;2022-11-21T08:57:55;10.40;99.90
27164;DHT22;14685;50.618;7.024;2022-11-21T09:00:22;10.40;99.90
27164;DHT22;14685;50.618;7.024;2022-11-21T09:02:49;10.40;99.90
27164;DHT22;14685;50.618;7.024;2022-11-21T09:05:16;10.50;99.90
27164;DHT22;14685;50.618;7.024;2022-11-21T09:07:44;10.50;99.90
27164;DHT22;14685;50.618;7.024;2022-11-21T09:10:11;10.50;99.90
27164;DHT22;14685;50.618;7.024;2022-11-21T09:12:38;10.70;99.90
27164;DHT22;14685;50.618;7.024;2022-11-21T09:15:05;10.80;99.90
27164;DHT22;14685;50.618;7.024;2022-11-21T09:17:51;10.90;99.90
27164;DHT22;14685;50.618;7.024;2022-11-21T09:20:31;11.10;99.90
27164;DHT22;14685;50.618;7.024;2022-11-21T09:23:08;11.20;99.90
27164;DHT22;14685;50.618;7.024;2022-11-21T09:25:35;11.20;99.90
27164;DHT22;14685;50.618;7.024;2022-11-21T09:28:03;11.30;99.90
27164;DHT22;14685;50.618;7.024;2022-11-21T09:30:32;11.40;99.90
27164;DHT22;14685;50.618;7.024;2022-11-21T09:33:04;11.50;99.90
27164;DHT22;14685;50.618;7.024;2022-11-21T09:35:31;11.50;99.90
27164;DHT22;14685;50.618;7.024;2022-11-21T09:37:59;11.50;99.90
27164;DHT22;14685;50.618;7.024;2022-11-21T09:40:27;11.50;99.90
27164;DHT22;14685;50.618;7.024;2022-11-21T09:43:17;11.60;99.90
27164;DHT22;14685;50.618;7.024;2022-11-21T09:45:51;11.70;99.90
27164;DHT22;14685;50.618;7.024;2022-11-21T09:48:29;11.80;99.90
27164;DHT22;14685;50.618;7.024;2022-11-21T09:51:01;11.80;99.90
27164;DHT22;14685;50.618;7.024;2022-11-21T09:53:52;11.90;99.90
27164;DHT22;14685;50.618;7.024;2022-11-21T09:56:21;11.90;99.90
27164;DHT22;14685;50.618;7.024;2022-11-21T09:59:26;11.90;99.90
27164;DHT22;14685;50.618;7.024;2022-11-21T10:01:57;12.00;99.90
27164;DHT22;14685;50.618;7.024;2022-11-21T10:04:25;12.00;99.90
27164;DHT22;14685;50.618;7.024;2022-11-21T10:07:05;12.10;99.90
27164;DHT22;14685;50.618;7.024;2022-11-21T10:09:48;12.10;99.90
27164;DHT22;14685;50.618;7.024;2022-11-21T10:15:35;12.00;99.90
27164;DHT22;14685;50.618;7.024;2022-11-21T10:23:40;11.80;99.90
27164;DHT22;14685;50.618;7.024;2022-11-21T10:31:48;11.80;99.90
27164;DHT22;14685;50.618;7.024;2022-11-21T10:34:22;11.70;99.90
27164;DHT22;14685;50.618;7.024;2022-11-21T10:37:01;11.70;99.90
27164;DHT22;14685;50.618;7.024;2022-11-21T10:39:42;11.70;99.90
27164;DHT22;14685;50.618;7.024;2022-11-21T10:45:00;11.80;99.90
27164;DHT22;14685;50.618;7.024;2022-11-21T10:47:49;11.90;99.90
27164;DHT22;14685;50.618;7.024;2022-11-21T10:50:38;11.90;99.90
27164;DHT22;14685;50.618;7.024;2022-11-21T10:56:03;11.90;99.90
27164;DHT22;14685;50.618;7.024;2022-11-21T10:58:45;11.90;99.90
27164;DHT22;14685;50.618;7.024;2022-11-21T11:01:40;11.80;99.90
27164;DHT22;14685;50.618;7.024;2022-11-21T11:04:20;11.80;99.90
27164;DHT22;14685;50.618;7.024;2022-11-21T11:07:19;11.80;99.90
27164;DHT22;14685;50.618;7.024;2022-11-21T11:09:48;11.70;99.90
27164;DHT22;14685;50.618;7.024;2022-11-21T11:12:35;11.70;99.90
27164;DHT22;14685;50.618;7.024;2022-11-21T11:15:23;11.70;99.90
27164;DHT22;14685;50.618;7.024;2022-11-21T11:18:01;11.70;99.90
27164;DHT22;14685;50.618;7.024;2022-11-21T11:20:36;11.70;99.90
27164;DHT22;14685;50.618;7.024;2022-11-21T11:25:47;11.60;99.90
27164;DHT22;14685;50.618;7.024;2022-11-21T11:28:14;11.70;99.90
27164;DHT22;14685;50.618;7.024;2022-11-21T11:30:42;11.60;99.90
27164;DHT22;14685;50.618;7.024;2022-11-21T11:33:38;11.60;99.90
27164;DHT22;14685;50.618;7.024;2022-11-21T11:38:58;11.50;99.90
27164;DHT22;14685;50.618;7.024;2022-11-21T11:42:27;11.50;99.90
27164;DHT22;14685;50.618;7.024;2022-11-21T11:45:22;11.40;99.90
27164;DHT22;14685;50.618;7.024;2022-11-21T11:48:10;11.30;99.90
27164;DHT22;14685;50.618;7.024;2022-11-21T11:50:49;11.30;99.90
27164;DHT22;14685;50.618;7.024;2022-11-21T11:56:19;11.20;99.90
27164;DHT22;14685;50.618;7.024;2022-11-21T11:59:09;11.10;99.90
27164;DHT22;14685;50.618;7.024;2022-11-21T12:04:18;11.10;99.90
27164;DHT22;14685;50.618;7.024;2022-11-21T12:07:11;11.10;99.90
27164;DHT22;14685;50.618;7.024;2022-11-21T12:10:11;11.10;99.90
27164;DHT22;14685;50.618;7.024;2022-11-21T12:12:46;11.10;99.90
27164;DHT22;14685;50.618;7.024;2022-11-21T12:15:22;11.10;99.90
27164;DHT22;14685;50.618;7.024;2022-11-21T12:23:45;11.20;99.90
27164;DHT22;14685;50.618;7.024;2022-11-21T12:26:47;11.20;99.90
27164;DHT22;14685;50.618;7.024;2022-11-21T12:35:15;11.20;99.90
27164;DHT22;14685;50.618;7.024;2022-11-21T12:43:39;11.20;99.90
27164;DHT22;14685;50.618;7.024;2022-11-21T12:46:17;11.20;99.90
27164;DHT22;14685;50.618;7.024;2022-11-21T12:51:46;11.10;99.90
27164;DHT22;14685;50.618;7.024;2022-11-21T13:01:22;11.20;99.90
27164;DHT22;14685;50.618;7.024;2022-11-21T13:04:08;11.20;99.90
27164;DHT22;14685;50.618;7.024;2022-11-21T13:06:41;11.10;99.90
27164;DHT22;14685;50.618;7.024;2022-11-21T13:09:14;11.20;99.90
27164;DHT22;14685;50.618;7.024;2022-11-21T13:15:11;11.10;99.90
27164;DHT22;14685;50.618;7.024;2022-11-21T13:20:19;11.20;99.90
27164;DHT22;14685;50.618;7.024;2022-11-21T13:22:48;11.20;99.90
27164;DHT22;14685;50.618;7.024;2022-11-21T13:28:24;11.20;99.90
27164;DHT22;14685;50.618;7.024;2022-11-21T13:30:55;11.30;99.90
27164;DHT22;14685;50.618;7.024;2022-11-21T13:36:10;11.30;99.90
27164;DHT22;14685;50.618;7.024;2022-11-21T13:49:47;11.20;99.90
27164;DHT22;14685;50.618;7.024;2022-11-21T13:52:27;11.20;99.90
27164;DHT22;14685;50.618;7.024;2022-11-21T14:01:02;11.20;99.90
27164;DHT22;14685;50.618;7.024;2022-11-21T14:06:44;11.20;99.90
27164;DHT22;14685;50.618;7.024;2022-11-21T14:14:37;11.20;99.90
27164;DHT22;14685;50.618;7.024;2022-11-21T14:17:08;11.30;99.90
27164;DHT22;14685;50.618;7.024;2022-11-21T14:19:39;11.30;99.90
27164;DHT22;14685;50.618;7.024;2022-11-21T14:25:41;11.20;99.90
27164;DHT22;14685;50.618;7.024;2022-11-21T14:28:14;11.30;99.90
27164;DHT22;14685;50.618;7.024;2022-11-21T14:30:43;11.20;99.90
27164;DHT22;14685;50.618;7.024;2022-11-21T14:33:31;11.10;99.90
27164;DHT22;14685;50.618;7.024;2022-11-21T14:36:21;11.10;99.90
27164;DHT22;14685;50.618;7.024;2022-11-21T14:38:57;11.10;99.90
27164;DHT22;14685;50.618;7.024;2022-11-21T14:41:50;11.10;99.90
27164;DHT22;14685;50.618;7.024;2022-11-21T14:44:19;11.10;99.90
27164;DHT22;14685;50.618;7.024;2022-11-21T14:46:47;11.00;99.90
27164;DHT22;14685;50.618;7.024;2022-11-21T14:49:20;11.00;99.90
27164;DHT22;14685;50.618;7.024;2022-11-21T14:57:40;11.00;99.90
27164;DHT22;14685;50.618;7.024;2022-11-21T15:00:13;10.90;99.90
27164;DHT22;14685;50.618;7.024;2022-11-21T15:03:01;10.90;99.90
27164;DHT22;14685;50.618;7.024;2022-11-21T15:05:33;10.90;99.90
27164;DHT22;14685;50.618;7.024;2022-11-21T15:08:22;10.90;99.90
27164;DHT22;14685;50.618;7.024;2022-11-21T15:11:10;10.80;99.90
27164;DHT22;14685;50.618;7.024;2022-11-21T15:13:38;10.80;99.90
27164;DHT22;14685;50.618;7.024;2022-11-21T15:16:26;10.80;99.90
27164;DHT22;14685;50.618;7.024;2022-11-21T15:18:53;10.70;99.90
27164;DHT22;14685;50.618;7.024;2022-11-21T15:21:20;10.70;99.90
27164;DHT22;14685;50.618;7.024;2022-11-21T15:23:47;10.60;99.90
27164;DHT22;14685;50.618;7.024;2022-11-21T15:26:31;10.60;99.90
27164;DHT22;14685;50.618;7.024;2022-11-21T15:29:00;10.50;99.90
27164;DHT22;14685;50.618;7.024;2022-11-21T15:31:27;10.50;99.90
27164;DHT22;14685;50.618;7.024;2022-11-21T15:33:59;10.50;99.90
27164;DHT22;14685;50.618;7.024;2022-11-21T15:37:15;10.40;99.90
27164;DHT22;14685;50.618;7.024;2022-11-21T15:39:47;10.40;99.90
27164;DHT22;14685;50.618;7.024;2022-11-21T15:44:59;10.50;99.90
27164;DHT22;14685;50.618;7.024;2022-11-21T15:47:26;10.50;99.90
27164;DHT22;14685;50.618;7.024;2022-11-21T15:49:53;10.50;99.90
27164;DHT22;14685;50.618;7.024;2022-11-21T15:52:20;10.60;99.90
27164;DHT22;14685;50.618;7.024;2022-11-21T15:54:48;10.60;99.90
27164;DHT22;14685;50.618;7.024;2022-11-21T15:57:15;10.60;99.90
27164;DHT22;14685;50.618;7.024;2022-11-21T15:59:44;10.60;99.90
27164;DHT22;14685;50.618;7.024;2022-11-21T16:02:14;10.60;99.90
27164;DHT22;14685;50.618;7.024;2022-11-21T16:04:41;10.60;99.90
27164;DHT22;14685;50.618;7.024;2022-11-21T16:07:08;10.60;99.90
27164;DHT22;14685;50.618;7.024;2022-11-21T16:09:35;10.60;99.90
27164;DHT22;14685;50.618;7.024;2022-11-21T16:12:03;10.60;99.90
27164;DHT22;14685;50.618;7.024;2022-11-21T16:14:30;10.50;99.90
27164;DHT22;14685;50.618;7.024;2022-11-21T16:16:58;10.50;99.90
27164;DHT22;14685;50.618;7.024;2022-11-21T16:19:25;10.40;99.90
27164;DHT22;14685;50.618;7.024;2022-11-21T16:21:52;10.40;99.90
27164;DHT22;14685;50.618;7.024;2022-11-21T16:24:19;10.40;99.90
27164;DHT22;14685;50.618;7.024;2022-11-21T16:26:46;10.40;99.90
27164;DHT22;14685;50.618;7.024;2022-11-21T16:29:14;10.40;99.90
27164;DHT22;14685;50.618;7.024;2022-11-21T16:31:41;10.40;99.90
27164;DHT22;14685;50.618;7.024;2022-11-21T16:34:08;10.50;99.90
27164;DHT22;14685;50.618;7.024;2022-11-21T16:36:36;10.40;99.90
27164;DHT22;14685;50.618;7.024;2022-11-21T16:39:03;10.50;99.90
27164;DHT22;14685;50.618;7.024;2022-11-21T16:41:37;10.50;99.90
27164;DHT22;14685;50.618;7.024;2022-11-21T16:44:11;10.40;99.90
27164;DHT22;14685;50.618;7.024;2022-11-21T16:46:44;10.30;99.90
27164;DHT22;14685;50.618;7.024;2022-11-21T16:49:14;10.40;99.90
27164;DHT22;14685;50.618;7.024;2022-11-21T16:51:41;10.30;99.90
27164;DHT22;14685;50.618;7.024;2022-11-21T16:54:08;10.30;99.90
27164;DHT22;14685;50.618;7.024;2022-11-21T16:56:37;10.40;99.90
27164;DHT22;14685;50.618;7.024;2022-11-21T16:59:03;10.30;99.90
27164;DHT22;14685;50.618;7.024;2022-11-21T17:01:31;10.30;99.90
27164;DHT22;14685;50.618;7.024;2022-11-21T17:03:58;10.30;99.90
27164;DHT22;14685;50.618;7.024;2022-11-21T17:06:28;10.30;99.90
27164;DHT22;14685;50.618;7.024;2022-11-21T17:08:57;10.40;99.90
27164;DHT22;14685;50.618;7.024;2022-11-21T17:11:25;10.20;99.90
27164;DHT22;14685;50.618;7.024;2022-11-21T17:14:04;10.20;99.90
27164;DHT22;14685;50.618;7.024;2022-11-21T17:16:33;10.10;99.90
27164;DHT22;14685;50.618;7.024;2022-11-21T17:19:01;10.10;99.90
27164;DHT22;14685;50.618;7.024;2022-11-21T17:21:28;10.10;99.90
27164;DHT22;14685;50.618;7.024;2022-11-21T17:23:58;10.10;99.90
27164;DHT22;14685;50.618;7.024;2022-11-21T17:26:27;10.10;99.90
27164;DHT22;14685;50.618;7.024;2022-11-21T17:28:59;10.20;99.90
27164;DHT22;14685;50.618;7.024;2022-11-21T17:31:29;10.20;99.90
27164;DHT22;14685;50.618;7.024;2022-11-21T17:33:56;10.20;99.90
27164;DHT22;14685;50.618;7.024;2022-11-21T17:36:25;10.20;99.90
27164;DHT22;14685;50.618;7.024;2022-11-21T17:38:53;10.20;99.90
27164;DHT22;14685;50.618;7.024;2022-11-21T17:41:21;10.10;99.90
27164;DHT22;14685;50.618;7.024;2022-11-21T17:43:53;10.10;99.90
27164;DHT22;14685;50.618;7.024;2022-11-21T17:46:20;10.10;99.90
27164;DHT22;14685;50.618;7.024;2022-11-21T17:48:48;10.10;99.90